sensor_id;sensor_type;location;lat;lon;timestamp;pressure;altitude;pressure_sealevel;temperature
82297;BMP280;71899;51.992;8.648;2023-07-30T11:04:17;99689.66;;;25.10
82297;BMP280;71899;51.992;8.648;2023-07-30T11:06:49;99688.88;;;25.23
82297;BMP280;71899;51.992;8.648;2023-07-30T11:11:16;99703.06;;;25.16
82297;BMP280;71899;51.992;8.648;2023-07-30T11:13:43;99704.00;;;24.48
82297;BMP280;71899;51.992;8.648;2023-07-30T11:16:10;99690.91;;;25.07
82297;BMP280;71899;51.992;8.648;2023-07-30T11:18:37;99690.94;;;24.66
82297;BMP280;71899;51.992;8.648;2023-07-30T11:21:10;99687.44;;;25.33
82297;BMP280;71899;51.992;8.648;2023-07-30T11:23:37;99684.69;;;24.94
82297;BMP280;71899;51.992;8.648;2023-07-30T11:26:04;99680.00;;;25.22
82297;BMP280;71899;51.992;8.648;2023-07-30T11:28:34;99689.75;;;24.76
82297;BMP280;71899;51.992;8.648;2023-07-30T11:31:01;99672.63;;;26.36
82297;BMP280;71899;51.992;8.648;2023-07-30T11:33:28;99667.44;;;27.86
82297;BMP280;71899;51.992;8.648;2023-07-30T11:35:55;99653.28;;;28.70
82297;BMP280;71899;51.992;8.648;2023-07-30T11:38:22;99653.66;;;28.55
82297;BMP280;71899;51.992;8.648;2023-07-30T11:40:49;99670.19;;;27.17
82297;BMP280;71899;51.992;8.648;2023-07-30T11:43:14;99671.19;;;25.35
82297;BMP280;71899;51.992;8.648;2023-07-30T11:45:40;99675.50;;;25.23
82297;BMP280;71899;51.992;8.648;2023-07-30T11:48:09;99665.63;;;26.79
82297;BMP280;71899;51.992;8.648;2023-07-30T11:50:51;99651.50;;;28.93
82297;BMP280;71899;51.992;8.648;2023-07-30T11:53:17;99668.25;;;26.99
82297;BMP280;71899;51.992;8.648;2023-07-30T11:55:43;99672.97;;;26.97
82297;BMP280;71899;51.992;8.648;2023-07-30T11:58:10;99668.34;;;26.73
82297;BMP280;71899;51.992;8.648;2023-07-30T12:00:36;99675.56;;;25.75
82297;BMP280;71899;51.992;8.648;2023-07-30T12:03:03;99672.44;;;26.24
82297;BMP280;71899;51.992;8.648;2023-07-30T12:05:33;99658.81;;;27.21
82297;BMP280;71899;51.992;8.648;2023-07-30T12:08:00;99657.91;;;28.08
82297;BMP280;71899;51.992;8.648;2023-07-30T12:10:28;99660.09;;;27.50
82297;BMP280;71899;51.992;8.648;2023-07-30T12:12:53;99660.50;;;27.96
82297;BMP280;71899;51.992;8.648;2023-07-30T12:15:18;99658.75;;;26.45
82297;BMP280;71899;51.992;8.648;2023-07-30T12:17:43;99648.25;;;26.44
82297;BMP280;71899;51.992;8.648;2023-07-30T12:20:11;99683.25;;;24.50
82297;BMP280;71899;51.992;8.648;2023-07-30T12:22:36;99680.22;;;23.70
82297;BMP280;71899;51.992;8.648;2023-07-30T12:25:03;99673.84;;;23.64
82297;BMP280;71899;51.992;8.648;2023-07-30T12:27:29;99682.06;;;23.69
82297;BMP280;71899;51.992;8.648;2023-07-30T12:29:55;99693.97;;;22.15
82297;BMP280;71899;51.992;8.648;2023-07-30T12:32:20;99710.91;;;21.85
82297;BMP280;71899;51.992;8.648;2023-07-30T12:34:45;99696.75;;;22.07
82297;BMP280;71899;51.992;8.648;2023-07-30T12:37:10;99700.16;;;22.75
82297;BMP280;71899;51.992;8.648;2023-07-30T12:39:36;99698.09;;;22.91
82297;BMP280;71899;51.992;8.648;2023-07-30T12:42:01;99704.03;;;22.72
82297;BMP280;71899;51.992;8.648;2023-07-30T12:44:26;99701.16;;;22.73
82297;BMP280;71899;51.992;8.648;2023-07-30T12:46:53;99696.69;;;23.31
82297;BMP280;71899;51.992;8.648;2023-07-30T12:49:18;99696.19;;;22.85
82297;BMP280;71899;51.992;8.648;2023-07-30T12:51:43;99703.75;;;22.67
82297;BMP280;71899;51.992;8.648;2023-07-30T12:54:09;99709.13;;;22.59
82297;BMP280;71899;51.992;8.648;2023-07-30T12:56:34;99689.59;;;24.84
82297;BMP280;71899;51.992;8.648;2023-07-30T12:58:59;99697.44;;;26.82
82297;BMP280;71899;51.992;8.648;2023-07-30T13:01:24;99697.16;;;26.26
82297;BMP280;71899;51.992;8.648;2023-07-30T13:03:50;99698.97;;;25.27
82297;BMP280;71899;51.992;8.648;2023-07-30T13:06:17;99696.38;;;24.45
82297;BMP280;71899;51.992;8.648;2023-07-30T13:08:42;99690.25;;;24.17
82297;BMP280;71899;51.992;8.648;2023-07-30T13:11:08;99690.25;;;24.92
82297;BMP280;71899;51.992;8.648;2023-07-30T13:13:33;99695.00;;;25.03
82297;BMP280;71899;51.992;8.648;2023-07-30T13:15:58;99686.00;;;25.37
82297;BMP280;71899;51.992;8.648;2023-07-30T13:18:26;99709.47;;;23.36
82297;BMP280;71899;51.992;8.648;2023-07-30T13:20:51;99693.59;;;25.14
82297;BMP280;71899;51.992;8.648;2023-07-30T13:23:16;99702.22;;;24.21
82297;BMP280;71899;51.992;8.648;2023-07-30T13:25:42;99706.94;;;23.98
82297;BMP280;71899;51.992;8.648;2023-07-30T13:28:07;99693.97;;;25.04
82297;BMP280;71899;51.992;8.648;2023-07-30T13:30:33;99699.81;;;24.33
82297;BMP280;71899;51.992;8.648;2023-07-30T13:32:58;99696.72;;;24.77
82297;BMP280;71899;51.992;8.648;2023-07-30T13:35:23;99705.09;;;24.60
82297;BMP280;71899;51.992;8.648;2023-07-30T13:37:48;99718.41;;;22.34
82297;BMP280;71899;51.992;8.648;2023-07-30T13:40:14;99724.09;;;21.10
82297;BMP280;71899;51.992;8.648;2023-07-30T13:42:39;99741.22;;;20.69
82297;BMP280;71899;51.992;8.648;2023-07-30T13:45:05;99752.91;;;20.19
82297;BMP280;71899;51.992;8.648;2023-07-30T13:47:30;99758.59;;;19.84
82297;BMP280;71899;51.992;8.648;2023-07-30T13:49:55;99778.22;;;19.25
82297;BMP280;71899;51.992;8.648;2023-07-30T13:52:21;99798.53;;;18.23
82297;BMP280;71899;51.992;8.648;2023-07-30T13:54:46;99804.41;;;17.91
82297;BMP280;71899;51.992;8.648;2023-07-30T13:57:11;99806.16;;;17.82
82297;BMP280;71899;51.992;8.648;2023-07-30T13:59:37;99793.44;;;17.51
82297;BMP280;71899;51.992;8.648;2023-07-30T14:02:02;99783.31;;;17.99
82297;BMP280;71899;51.992;8.648;2023-07-30T14:04:28;99779.28;;;18.39
82297;BMP280;71899;51.992;8.648;2023-07-30T14:06:53;99773.59;;;18.25
82297;BMP280;71899;51.992;8.648;2023-07-30T14:09:18;99780.16;;;17.96
82297;BMP280;71899;51.992;8.648;2023-07-30T14:11:43;99783.09;;;18.36
82297;BMP280;71899;51.992;8.648;2023-07-30T14:14:11;99777.75;;;17.84
82297;BMP280;71899;51.992;8.648;2023-07-30T14:16:37;99763.34;;;17.79
82297;BMP280;71899;51.992;8.648;2023-07-30T14:19:02;99762.31;;;17.80
82297;BMP280;71899;51.992;8.648;2023-07-30T14:21:27;99752.44;;;17.82
82297;BMP280;71899;51.992;8.648;2023-07-30T14:23:53;99736.06;;;18.30
82297;BMP280;71899;51.992;8.648;2023-07-30T14:26:18;99740.84;;;18.94
82297;BMP280;71899;51.992;8.648;2023-07-30T14:28:43;99734.41;;;19.55
82297;BMP280;71899;51.992;8.648;2023-07-30T14:31:09;99728.56;;;20.32
82297;BMP280;71899;51.992;8.648;2023-07-30T14:33:34;99722.41;;;21.63
82297;BMP280;71899;51.992;8.648;2023-07-30T14:36:00;99724.91;;;22.68
82297;BMP280;71899;51.992;8.648;2023-07-30T14:38:25;99713.88;;;23.92
82297;BMP280;71899;51.992;8.648;2023-07-30T14:40:51;99716.41;;;21.84
82297;BMP280;71899;51.992;8.648;2023-07-30T14:43:16;99726.88;;;22.08
82297;BMP280;71899;51.992;8.648;2023-07-30T14:45:41;99724.59;;;22.49
82297;BMP280;71899;51.992;8.648;2023-07-30T14:48:07;99724.22;;;21.85
82297;BMP280;71899;51.992;8.648;2023-07-30T14:50:32;99718.59;;;22.17
82297;BMP280;71899;51.992;8.648;2023-07-30T14:52:57;99714.44;;;23.03
82297;BMP280;71899;51.992;8.648;2023-07-30T14:55:22;99714.59;;;23.37
82297;BMP280;71899;51.992;8.648;2023-07-30T14:57:48;99723.84;;;21.88
82297;BMP280;71899;51.992;8.648;2023-07-30T15:00:13;99714.94;;;22.48
82297;BMP280;71899;51.992;8.648;2023-07-30T15:02:41;99715.22;;;22.53
82297;BMP280;71899;51.992;8.648;2023-07-30T15:05:07;99713.56;;;22.52
82297;BMP280;71899;51.992;8.648;2023-07-30T15:07:32;99714.63;;;23.58
82297;BMP280;71899;51.992;8.648;2023-07-30T15:09:58;99711.63;;;23.26
82297;BMP280;71899;51.992;8.648;2023-07-30T15:12:23;99711.25;;;22.63
82297;BMP280;71899;51.992;8.648;2023-07-30T15:14:48;99697.22;;;23.05
82297;BMP280;71899;51.992;8.648;2023-07-30T15:17:14;99701.44;;;23.78
82297;BMP280;71899;51.992;8.648;2023-07-30T15:19:39;99709.22;;;22.80
82297;BMP280;71899;51.992;8.648;2023-07-30T15:22:05;99692.81;;;23.55
82297;BMP280;71899;51.992;8.648;2023-07-30T15:24:31;99687.38;;;22.55
82297;BMP280;71899;51.992;8.648;2023-07-30T15:26:56;99700.97;;;22.31
82297;BMP280;71899;51.992;8.648;2023-07-30T15:29:21;99692.78;;;22.62
82297;BMP280;71899;51.992;8.648;2023-07-30T15:31:49;99703.91;;;22.80
82297;BMP280;71899;51.992;8.648;2023-07-30T15:34:14;99689.53;;;22.96
82297;BMP280;71899;51.992;8.648;2023-07-30T15:36:40;99690.38;;;24.09
82297;BMP280;71899;51.992;8.648;2023-07-30T15:39:05;99688.66;;;23.46
82297;BMP280;71899;51.992;8.648;2023-07-30T15:41:30;99711.06;;;22.80
82297;BMP280;71899;51.992;8.648;2023-07-30T15:43:56;99715.28;;;22.59
82297;BMP280;71899;51.992;8.648;2023-07-30T15:46:21;99707.38;;;22.95
82297;BMP280;71899;51.992;8.648;2023-07-30T15:48:48;99706.59;;;22.21
82297;BMP280;71899;51.992;8.648;2023-07-30T15:51:13;99710.59;;;21.43
82297;BMP280;71899;51.992;8.648;2023-07-30T15:53:38;99706.47;;;22.30
82297;BMP280;71899;51.992;8.648;2023-07-30T15:56:04;99704.69;;;24.01
82297;BMP280;71899;51.992;8.648;2023-07-30T15:58:31;99703.28;;;23.78
82297;BMP280;71899;51.992;8.648;2023-07-30T16:00:56;99701.78;;;23.47
82297;BMP280;71899;51.992;8.648;2023-07-30T16:03:24;99686.78;;;24.23
82297;BMP280;71899;51.992;8.648;2023-07-30T16:05:49;99696.75;;;23.59
82297;BMP280;71899;51.992;8.648;2023-07-30T16:08:15;99705.25;;;23.27
82297;BMP280;71899;51.992;8.648;2023-07-30T16:10:40;99698.59;;;23.01
82297;BMP280;71899;51.992;8.648;2023-07-30T16:13:06;99698.53;;;22.95
82297;BMP280;71899;51.992;8.648;2023-07-30T16:15:31;99701.16;;;22.44
82297;BMP280;71899;51.992;8.648;2023-07-30T16:17:57;99700.34;;;22.14
82297;BMP280;71899;51.992;8.648;2023-07-30T16:20:22;99703.06;;;22.06
82297;BMP280;71899;51.992;8.648;2023-07-30T16:22:48;99714.34;;;21.71
82297;BMP280;71899;51.992;8.648;2023-07-30T16:25:13;99721.19;;;21.65
82297;BMP280;71899;51.992;8.648;2023-07-30T16:27:38;99713.47;;;21.10
82297;BMP280;71899;51.992;8.648;2023-07-30T16:30:04;99717.44;;;21.06
82297;BMP280;71899;51.992;8.648;2023-07-30T16:32:30;99715.69;;;20.91
82297;BMP280;71899;51.992;8.648;2023-07-30T16:34:55;99718.03;;;20.94
82297;BMP280;71899;51.992;8.648;2023-07-30T16:37:21;99719.16;;;21.30
82297;BMP280;71899;51.992;8.648;2023-07-30T16:39:47;99709.31;;;22.13
82297;BMP280;71899;51.992;8.648;2023-07-30T16:42:12;99712.28;;;22.18
82297;BMP280;71899;51.992;8.648;2023-07-30T16:44:38;99712.19;;;22.56
82297;BMP280;71899;51.992;8.648;2023-07-30T16:47:03;99718.53;;;22.69
82297;BMP280;71899;51.992;8.648;2023-07-30T16:49:29;99726.00;;;21.93
82297;BMP280;71899;51.992;8.648;2023-07-30T16:51:56;99710.59;;;21.80
82297;BMP280;71899;51.992;8.648;2023-07-30T16:54:21;99718.19;;;21.91
82297;BMP280;71899;51.992;8.648;2023-07-30T16:56:46;99716.59;;;21.59
82297;BMP280;71899;51.992;8.648;2023-07-30T16:59:11;99716.56;;;21.45
82297;BMP280;71899;51.992;8.648;2023-07-30T17:01:37;99721.75;;;21.61
82297;BMP280;71899;51.992;8.648;2023-07-30T17:04:02;99734.94;;;21.32
82297;BMP280;71899;51.992;8.648;2023-07-30T17:06:28;99741.22;;;20.69
82297;BMP280;71899;51.992;8.648;2023-07-30T17:08:53;99742.31;;;20.83
82297;BMP280;71899;51.992;8.648;2023-07-30T17:11:18;99754.91;;;20.89
82297;BMP280;71899;51.992;8.648;2023-07-30T17:13:43;99745.44;;;20.47
82297;BMP280;71899;51.992;8.648;2023-07-30T17:16:10;99737.13;;;20.50
82297;BMP280;71899;51.992;8.648;2023-07-30T17:18:37;99736.69;;;20.77
82297;BMP280;71899;51.992;8.648;2023-07-30T17:21:04;99741.38;;;21.06
82297;BMP280;71899;51.992;8.648;2023-07-30T17:23:30;99749.75;;;21.26
82297;BMP280;71899;51.992;8.648;2023-07-30T17:25:59;99743.94;;;21.22
82297;BMP280;71899;51.992;8.648;2023-07-30T17:28:25;99750.94;;;20.85
82297;BMP280;71899;51.992;8.648;2023-07-30T17:30:51;99744.03;;;20.67
82297;BMP280;71899;51.992;8.648;2023-07-30T17:33:16;99755.44;;;20.29
82297;BMP280;71899;51.992;8.648;2023-07-30T17:35:42;99753.22;;;20.49
82297;BMP280;71899;51.992;8.648;2023-07-30T17:38:08;99761.19;;;20.41
82297;BMP280;71899;51.992;8.648;2023-07-30T17:40:34;99756.06;;;20.23
82297;BMP280;71899;51.992;8.648;2023-07-30T17:43:02;99750.06;;;20.53
82297;BMP280;71899;51.992;8.648;2023-07-30T17:45:27;99763.22;;;20.31
82297;BMP280;71899;51.992;8.648;2023-07-30T17:47:52;99747.28;;;20.47
82297;BMP280;71899;51.992;8.648;2023-07-30T17:50:18;99755.69;;;20.58
82297;BMP280;71899;51.992;8.648;2023-07-30T17:52:43;99762.38;;;20.38
82297;BMP280;71899;51.992;8.648;2023-07-30T17:55:08;99756.25;;;20.21
82297;BMP280;71899;51.992;8.648;2023-07-30T17:57:34;99757.22;;;20.45
82297;BMP280;71899;51.992;8.648;2023-07-30T17:59:59;99760.31;;;20.72
82297;BMP280;71899;51.992;8.648;2023-07-30T18:02:25;99763.72;;;20.34
82297;BMP280;71899;51.992;8.648;2023-07-30T18:04:51;99765.53;;;20.25
82297;BMP280;71899;51.992;8.648;2023-07-30T18:07:16;99761.06;;;20.34
82297;BMP280;71899;51.992;8.648;2023-07-30T18:09:42;99750.97;;;20.30
82297;BMP280;71899;51.992;8.648;2023-07-30T18:12:07;99759.59;;;19.99
82297;BMP280;71899;51.992;8.648;2023-07-30T18:14:33;99758.44;;;19.94
82297;BMP280;71899;51.992;8.648;2023-07-30T18:17:03;99757.59;;;19.85
82297;BMP280;71899;51.992;8.648;2023-07-30T18:19:30;99762.91;;;19.77
82297;BMP280;71899;51.992;8.648;2023-07-30T18:21:56;99773.19;;;19.72
82297;BMP280;71899;51.992;8.648;2023-07-30T18:24:21;99767.91;;;19.72
82297;BMP280;71899;51.992;8.648;2023-07-30T18:26:46;99758.44;;;19.86
82297;BMP280;71899;51.992;8.648;2023-07-30T18:29:12;99758.59;;;19.68
82297;BMP280;71899;51.992;8.648;2023-07-30T18:31:38;99758.25;;;19.87
82297;BMP280;71899;51.992;8.648;2023-07-30T18:34:03;99757.44;;;19.87
82297;BMP280;71899;51.992;8.648;2023-07-30T18:36:33;99760.22;;;20.34
82297;BMP280;71899;51.992;8.648;2023-07-30T18:38:58;99764.91;;;19.83
82297;BMP280;71899;51.992;8.648;2023-07-30T18:41:23;99756.22;;;20.54
82297;BMP280;71899;51.992;8.648;2023-07-30T18:43:49;99756.81;;;20.72
82297;BMP280;71899;51.992;8.648;2023-07-30T18:46:14;99764.06;;;20.15
82297;BMP280;71899;51.992;8.648;2023-07-30T18:48:39;99761.44;;;19.83
82297;BMP280;71899;51.992;8.648;2023-07-30T18:51:05;99763.91;;;19.92
82297;BMP280;71899;51.992;8.648;2023-07-30T18:53:30;99768.69;;;20.21
82297;BMP280;71899;51.992;8.648;2023-07-30T18:55:55;99761.38;;;20.47
82297;BMP280;71899;51.992;8.648;2023-07-30T18:58:21;99769.03;;;20.34
82297;BMP280;71899;51.992;8.648;2023-07-30T19:00:46;99764.38;;;20.20
82297;BMP280;71899;51.992;8.648;2023-07-30T19:03:13;99760.09;;;20.19
82297;BMP280;71899;51.992;8.648;2023-07-30T19:05:38;99765.06;;;19.73
82297;BMP280;71899;51.992;8.648;2023-07-30T19:08:03;99757.91;;;19.98
82297;BMP280;71899;51.992;8.648;2023-07-30T19:10:28;99765.41;;;19.87
82297;BMP280;71899;51.992;8.648;2023-07-30T19:12:54;99763.09;;;19.75
82297;BMP280;71899;51.992;8.648;2023-07-30T19:15:19;99771.38;;;19.64
82297;BMP280;71899;51.992;8.648;2023-07-30T19:17:45;99784.66;;;20.29
82297;BMP280;71899;51.992;8.648;2023-07-30T19:20:11;99774.97;;;20.44
82297;BMP280;71899;51.992;8.648;2023-07-30T19:22:36;99774.38;;;19.94
82297;BMP280;71899;51.992;8.648;2023-07-30T19:25:01;99773.84;;;19.66
82297;BMP280;71899;51.992;8.648;2023-07-30T19:27:26;99778.16;;;19.09
82297;BMP280;71899;51.992;8.648;2023-07-30T19:29:52;99775.59;;;18.91
82297;BMP280;71899;51.992;8.648;2023-07-30T19:32:17;99772.31;;;18.89
82297;BMP280;71899;51.992;8.648;2023-07-30T19:34:42;99768.75;;;19.14
82297;BMP280;71899;51.992;8.648;2023-07-30T19:37:08;99765.44;;;19.20
82297;BMP280;71899;51.992;8.648;2023-07-30T19:39:33;99761.16;;;19.27
82297;BMP280;71899;51.992;8.648;2023-07-30T19:41:58;99766.78;;;19.24
82297;BMP280;71899;51.992;8.648;2023-07-30T19:44:23;99765.53;;;19.53
82297;BMP280;71899;51.992;8.648;2023-07-30T19:46:49;99754.72;;;19.38
82297;BMP280;71899;51.992;8.648;2023-07-30T19:49:14;99765.28;;;19.30
82297;BMP280;71899;51.992;8.648;2023-07-30T19:51:40;99752.28;;;19.45
82297;BMP280;71899;51.992;8.648;2023-07-30T19:54:05;99755.25;;;19.42
82297;BMP280;71899;51.992;8.648;2023-07-30T19:56:31;99753.56;;;19.33
82297;BMP280;71899;51.992;8.648;2023-07-30T19:58:56;99764.09;;;19.16
82297;BMP280;71899;51.992;8.648;2023-07-30T20:01:22;99761.63;;;19.15
82297;BMP280;71899;51.992;8.648;2023-07-30T20:03:47;99760.94;;;19.13
82297;BMP280;71899;51.992;8.648;2023-07-30T20:06:13;99753.63;;;18.99
82297;BMP280;71899;51.992;8.648;2023-07-30T20:08:38;99757.47;;;19.12
82297;BMP280;71899;51.992;8.648;2023-07-30T20:11:05;99759.56;;;18.93
82297;BMP280;71899;51.992;8.648;2023-07-30T20:13:31;99752.66;;;19.00
82297;BMP280;71899;51.992;8.648;2023-07-30T20:15:58;99758.19;;;19.22
82297;BMP280;71899;51.992;8.648;2023-07-30T20:18:24;99755.31;;;19.08
82297;BMP280;71899;51.992;8.648;2023-07-30T20:20:50;99762.22;;;19.43
82297;BMP280;71899;51.992;8.648;2023-07-30T20:23:15;99761.00;;;18.79
82297;BMP280;71899;51.992;8.648;2023-07-30T20:25:40;99760.97;;;18.71
82297;BMP280;71899;51.992;8.648;2023-07-30T20:28:07;99768.41;;;18.67
82297;BMP280;71899;51.992;8.648;2023-07-30T20:30:33;99764.19;;;18.91
82297;BMP280;71899;51.992;8.648;2023-07-30T20:32:58;99765.25;;;18.64
82297;BMP280;71899;51.992;8.648;2023-07-30T20:35:24;99765.38;;;18.96
82297;BMP280;71899;51.992;8.648;2023-07-30T20:37:50;99773.81;;;18.58
82297;BMP280;71899;51.992;8.648;2023-07-30T20:40:17;99770.72;;;19.12
82297;BMP280;71899;51.992;8.648;2023-07-30T20:42:43;99790.47;;;18.76
82297;BMP280;71899;51.992;8.648;2023-07-30T20:45:08;99796.41;;;18.01
82297;BMP280;71899;51.992;8.648;2023-07-30T20:47:34;99813.94;;;17.21
82297;BMP280;71899;51.992;8.648;2023-07-30T20:49:59;99810.75;;;16.91
82297;BMP280;71899;51.992;8.648;2023-07-30T20:52:25;99810.88;;;16.43
82297;BMP280;71899;51.992;8.648;2023-07-30T20:54:50;99810.88;;;16.43
82297;BMP280;71899;51.992;8.648;2023-07-30T20:57:16;99805.63;;;16.33
82297;BMP280;71899;51.992;8.648;2023-07-30T20:59:41;99804.84;;;16.04
82297;BMP280;71899;51.992;8.648;2023-07-30T21:02:06;99797.47;;;16.26
82297;BMP280;71899;51.992;8.648;2023-07-30T21:04:31;99794.66;;;16.28
82297;BMP280;71899;51.992;8.648;2023-07-30T21:06:57;99783.78;;;16.50
82297;BMP280;71899;51.992;8.648;2023-07-30T21:09:22;99783.09;;;16.48
82297;BMP280;71899;51.992;8.648;2023-07-30T21:11:48;99786.41;;;16.60
82297;BMP280;71899;51.992;8.648;2023-07-30T21:14:14;99793.69;;;16.38
82297;BMP280;71899;51.992;8.648;2023-07-30T21:16:39;99798.81;;;16.30
82297;BMP280;71899;51.992;8.648;2023-07-30T21:19:04;99800.66;;;16.20
82297;BMP280;71899;51.992;8.648;2023-07-30T21:21:30;99793.84;;;16.37
82297;BMP280;71899;51.992;8.648;2023-07-30T21:23:55;99788.38;;;16.58
82297;BMP280;71899;51.992;8.648;2023-07-30T21:26:20;99792.41;;;16.43
82297;BMP280;71899;51.992;8.648;2023-07-30T21:28:45;99787.59;;;16.28
82297;BMP280;71899;51.992;8.648;2023-07-30T21:31:11;99788.44;;;16.29
82297;BMP280;71899;51.992;8.648;2023-07-30T21:33:36;99795.50;;;16.28
82297;BMP280;71899;51.992;8.648;2023-07-30T21:36:03;99796.44;;;16.56
82297;BMP280;71899;51.992;8.648;2023-07-30T21:38:28;99784.06;;;16.47
82297;BMP280;71899;51.992;8.648;2023-07-30T21:40:53;99789.09;;;16.41
82297;BMP280;71899;51.992;8.648;2023-07-30T21:43:22;99789.94;;;16.31
82297;BMP280;71899;51.992;8.648;2023-07-30T21:45:54;99788.75;;;16.07
82297;BMP280;71899;51.992;8.648;2023-07-30T21:48:21;99798.75;;;16.03
82297;BMP280;71899;51.992;8.648;2023-07-30T21:50:57;99792.91;;;16.19
82297;BMP280;71899;51.992;8.648;2023-07-30T21:53:23;99802.19;;;16.23
82297;BMP280;71899;51.992;8.648;2023-07-30T21:55:48;99792.19;;;16.17
82297;BMP280;71899;51.992;8.648;2023-07-30T21:58:13;99782.38;;;16.00
82297;BMP280;71899;51.992;8.648;2023-07-30T22:00:39;99777.06;;;16.09
82297;BMP280;71899;51.992;8.648;2023-07-30T22:03:04;99771.69;;;16.01
82297;BMP280;71899;51.992;8.648;2023-07-30T22:05:29;99771.56;;;15.93
82297;BMP280;71899;51.992;8.648;2023-07-30T22:07:54;99765.28;;;16.13
82297;BMP280;71899;51.992;8.648;2023-07-30T22:10:20;99766.06;;;16.23
82297;BMP280;71899;51.992;8.648;2023-07-30T22:12:46;99755.19;;;15.90
82297;BMP280;71899;51.992;8.648;2023-07-30T22:15:11;99765.03;;;15.97
82297;BMP280;71899;51.992;8.648;2023-07-30T22:17:37;99754.38;;;15.79
82297;BMP280;71899;51.992;8.648;2023-07-30T22:20:02;99748.94;;;15.81
82297;BMP280;71899;51.992;8.648;2023-07-30T22:22:28;99739.13;;;15.83
82297;BMP280;71899;51.992;8.648;2023-07-30T22:24:53;99727.47;;;15.76
82297;BMP280;71899;51.992;8.648;2023-07-30T22:27:18;99725.09;;;15.82
82297;BMP280;71899;51.992;8.648;2023-07-30T22:29:44;99716.22;;;15.74
82297;BMP280;71899;51.992;8.648;2023-07-30T22:32:09;99720.25;;;15.68
82297;BMP280;71899;51.992;8.648;2023-07-30T22:34:34;99716.78;;;15.68
82297;BMP280;71899;51.992;8.648;2023-07-30T22:37:00;99711.94;;;15.73
82297;BMP280;71899;51.992;8.648;2023-07-30T22:39:25;99720.81;;;15.72
82297;BMP280;71899;51.992;8.648;2023-07-30T22:41:50;99719.00;;;15.63
82297;BMP280;71899;51.992;8.648;2023-07-30T22:44:16;99712.94;;;15.62
82297;BMP280;71899;51.992;8.648;2023-07-30T22:46:41;99708.34;;;15.64
82297;BMP280;71899;51.992;8.648;2023-07-30T22:49:06;99708.47;;;15.63
82297;BMP280;71899;51.992;8.648;2023-07-30T22:51:31;99703.19;;;15.63
82297;BMP280;71899;51.992;8.648;2023-07-30T22:53:57;99704.75;;;15.65
82297;BMP280;71899;51.992;8.648;2023-07-30T22:56:22;99694.31;;;15.64
82297;BMP280;71899;51.992;8.648;2023-07-30T22:58:47;99700.16;;;15.67
82297;BMP280;71899;51.992;8.648;2023-07-30T23:01:13;99697.50;;;15.86
82297;BMP280;71899;51.992;8.648;2023-07-30T23:03:40;99695.28;;;15.82
82297;BMP280;71899;51.992;8.648;2023-07-30T23:06:06;99690.88;;;15.73
82297;BMP280;71899;51.992;8.648;2023-07-30T23:08:31;99689.41;;;15.88
82297;BMP280;71899;51.992;8.648;2023-07-30T23:10:56;99688.50;;;15.79
82297;BMP280;71899;51.992;8.648;2023-07-30T23:13:21;99686.81;;;15.78
82297;BMP280;71899;51.992;8.648;2023-07-30T23:15:47;99679.75;;;15.79
82297;BMP280;71899;51.992;8.648;2023-07-30T23:18:12;99679.69;;;15.98
82297;BMP280;71899;51.992;8.648;2023-07-30T23:20:38;99680.97;;;15.84
82297;BMP280;71899;51.992;8.648;2023-07-30T23:23:03;99680.81;;;15.96
82297;BMP280;71899;51.992;8.648;2023-07-30T23:25:28;99670.50;;;16.02
82297;BMP280;71899;51.992;8.648;2023-07-30T23:27:54;99664.03;;;15.97
82297;BMP280;71899;51.992;8.648;2023-07-30T23:30:19;99660.41;;;15.98
82297;BMP280;71899;51.992;8.648;2023-07-30T23:32:44;99662.22;;;15.97
82297;BMP280;71899;51.992;8.648;2023-07-30T23:35:09;99656.81;;;15.89
82297;BMP280;71899;51.992;8.648;2023-07-30T23:37:35;99654.56;;;16.04
82297;BMP280;71899;51.992;8.648;2023-07-30T23:40:00;99652.09;;;15.93
82297;BMP280;71899;51.992;8.648;2023-07-30T23:42:25;99648.63;;;15.92
82297;BMP280;71899;51.992;8.648;2023-07-30T23:44:51;99653.50;;;15.87
82297;BMP280;71899;51.992;8.648;2023-07-30T23:47:19;99640.19;;;15.88
82297;BMP280;71899;51.992;8.648;2023-07-30T23:49:44;99653.13;;;15.63
82297;BMP280;71899;51.992;8.648;2023-07-30T23:52:10;99646.34;;;15.60
82297;BMP280;71899;51.992;8.648;2023-07-30T23:54:35;99641.88;;;15.70
82297;BMP280;71899;51.992;8.648;2023-07-30T23:57:00;99646.59;;;15.76
82297;BMP280;71899;51.992;8.648;2023-07-30T23:59:26;99633.56;;;15.75
